Αρχική σελίδα
METAR-TAF:

METAR-TAF

Αεροδρόμια :

Washington, Βιρτζίνια, Ηνωμένες Πολιτείες Αμερικής

γεωγραφικό πλάτος: 38-56-05N, γεωγραφικό μήκος: 077-26-51W, υψόμετρο: 95 μ

Παρών καιρός

Η αναφορά έγινε 1 ώρα και 1 λεπτά πριν, στις 00:52 UTC
Ήπιος άνεμος
Θερμοκρασία -3°C
Υγρασία 80%
Πίεση 1017 hPa
Ορατότητα: 16.1 χλμ
Καθαρός ουρανός

METAR: KIAD 120052Z 00000KT 10SM CLR M03/M06 A3003 RMK AO2 SLP172 T10281061

Χρόνος: 20:53 (01:53 UTC)

Πρόγνωση Καιρού

Η αναφορά έγινε 2 ώρες και 31 λεπτά πριν, στις 23:22 UTC
Η πρόγνωση ισχύει από τις 12 στις 00 UTC έως τις 13 στις 06 UTC
Άνεμος 4 kt από Ν/ΝΔ
Ορατότητα: 10 χλμ
Καθαρός ουρανός
Από 12 στις 1300 UTC
Άνεμος 4 kt από μεταβλητές κατευθύνσεις
Ορατότητα: 10 χλμ
Διάσπαρτα νέφη σε ύψος 20000 πόδια

TAF: KIAD 112322Z 1200/1306 21004KT P6SM SKC FM121300 VRB04KT P6SM SCT200

Μετεωρολογικές αναφορές και προγνώσεις για περισσότερα από 4000 αεροδρόμια (δελτία METAR και TAF).

Οι διαθέσιμοι σταθμοί απεικονίζονται στο χάρτη με κίτρινες και κόκκινες κουκκίδες.

Μετακινήστε το ποντίκι πάνω από τις κουκκίδες για να δείτε το όνομα του σταθμού.

Στη συνέχεια, κάντε κλικ για να δείτε τις μετεωρολογικές αναφορές και τις προγνώσεις καιρού.

Για να αλλάξετε το χάρτη: κάντε κλικ στα πράσινα κουμπιά με τον μαύρο σταυρό για να ζουμάρετε, στο πράσινο κουμπί με την παύλα για να αφαιρέσετε το ζουμ ή στα πράσινα βέλη για να αντιπαραβάλλετε χάρτες.


METAR-TAF: